Time;durP1;ratioP1;P1;durP2;ratioP2;P2;SDS_P1;SDS_P2;PMS_P1;PMS_P2;Temp;Humidity;BMP_temperature;BMP_pressure;BME280_temperature;BME280_humidity;BME280_pressure;Samples;Min_cycle;Max_cycle;Signal;HPM_P1;HPM_P2
2024/03/24 00:00:14;;;;;;;10.98;2.13;;;6.60;1.00;;;;;;6163153;28;20051;-86
2024/03/24 00:03:15;;;;;;;7.70;1.80;;;6.60;1.00;;;;;;6208325;28;20096;-87
2024/03/24 00:06:15;;;;;;;8.35;1.80;;;6.50;1.00;;;;;;6168537;28;20134;-86
2024/03/24 00:09:16;;;;;;;9.23;2.05;;;6.50;1.00;;;;;;6188608;28;20061;-86
2024/03/24 00:12:17;;;;;;;6.55;1.80;;;6.40;1.30;;;;;;6184255;28;20560;-85
2024/03/24 00:15:17;;;;;;;11.77;2.60;;;6.40;1.00;;;;;;6185618;28;20054;-86
2024/03/24 00:18:18;;;;;;;13.05;2.30;;;6.30;5.80;;;;;;6168036;28;20534;-86
2024/03/24 00:21:19;;;;;;;10.57;2.28;;;6.30;7.00;;;;;;6207304;28;20054;-86
2024/03/24 00:24:20;;;;;;;9.55;1.95;;;6.20;7.90;;;;;;6168672;28;20050;-86
2024/03/24 00:27:21;;;;;;;7.05;2.00;;;6.20;10.30;;;;;;6207184;28;20065;-85
2024/03/24 00:30:22;;;;;;;8.90;1.60;;;6.30;14.10;;;;;;6150071;28;20057;-86
2024/03/24 00:33:22;;;;;;;8.90;1.90;;;6.30;10.10;;;;;;6190733;28;20085;-85
2024/03/24 00:36:23;;;;;;;14.82;2.60;;;6.40;9.60;;;;;;6168335;28;20065;-86
2024/03/24 00:39:24;;;;;;;9.15;1.90;;;6.40;12.00;;;;;;6190749;28;20054;-84
2024/03/24 00:42:25;;;;;;;8.73;1.92;;;6.40;14.50;;;;;;6168104;28;20490;-85
2024/03/24 00:45:25;;;;;;;13.90;2.03;;;6.40;8.80;;;;;;6184653;28;20050;-86
2024/03/24 00:48:26;;;;;;;10.35;1.85;;;6.40;8.30;;;;;;6184164;28;20093;-88
2024/03/24 00:51:27;;;;;;;8.20;2.00;;;6.40;10.90;;;;;;6190936;28;20143;-88
2024/03/24 00:54:28;;;;;;;10.43;2.55;;;6.30;12.30;;;;;;6168354;28;20062;-88
2024/03/24 00:57:29;;;;;;;11.52;1.90;;;6.20;18.40;;;;;;6207776;28;20482;-87
2024/03/24 01:00:30;;;;;;;11.40;1.98;;;6.10;18.10;;;;;;6178203;28;20082;-88
2024/03/24 01:03:31;;;;;;;11.32;2.13;;;6.10;20.60;;;;;;6209232;28;20053;-86
2024/03/24 01:06:32;;;;;;;10.15;2.15;;;6.10;23.50;;;;;;6172545;28;20481;-87
2024/03/24 01:09:33;;;;;;;11.88;2.42;;;6.00;24.00;;;;;;6189900;28;20128;-86
2024/03/24 01:12:34;;;;;;;10.57;2.17;;;5.90;31.70;;;;;;6187935;28;20051;-86
2024/03/24 01:15:35;;;;;;;8.13;2.40;;;5.90;35.70;;;;;;6189377;28;20128;-87
2024/03/24 01:18:35;;;;;;;8.80;2.22;;;5.90;36.30;;;;;;6188665;28;20409;-85
2024/03/24 01:21:36;;;;;;;11.27;2.30;;;5.90;36.80;;;;;;6211001;28;20108;-86
2024/03/24 01:24:37;;;;;;;9.88;1.85;;;5.80;39.20;;;;;;6187714;28;20050;-84
2024/03/24 01:27:38;;;;;;;14.68;2.83;;;5.80;40.50;;;;;;6210406;28;20453;-84
2024/03/24 01:30:39;;;;;;;14.07;2.40;;;5.80;42.90;;;;;;6165887;28;20085;-85
2024/03/24 01:33:40;;;;;;;12.80;2.20;;;5.80;46.60;;;;;;6210011;28;20470;-86
2024/03/24 01:36:40;;;;;;;15.77;2.67;;;5.80;47.50;;;;;;6171211;28;20078;-84
2024/03/24 01:39:41;;;;;;;12.27;2.10;;;5.80;46.60;;;;;;6194864;28;20089;-86
2024/03/24 01:42:42;;;;;;;9.65;2.22;;;5.80;49.30;;;;;;6171208;28;20104;-85
2024/03/24 01:45:43;;;;;;;8.25;1.80;;;5.80;51.60;;;;;;6209798;28;20045;-86
2024/03/24 01:48:44;;;;;;;12.73;2.65;;;5.80;51.70;;;;;;6163475;28;20133;-86
2024/03/24 01:51:45;;;;;;;15.32;2.90;;;5.80;53.60;;;;;;6193420;28;20085;-85
2024/03/24 01:54:46;;;;;;;15.05;2.53;;;5.80;60.50;;;;;;6187075;28;20482;-86
2024/03/24 01:57:47;;;;;;;8.98;2.55;;;5.90;62.10;;;;;;6193911;28;20064;-84
2024/03/24 02:00:47;;;;;;;12.57;2.55;;;5.90;58.90;;;;;;6169668;28;20125;-85
2024/03/24 02:03:48;;;;;;;16.20;2.80;;;5.90;57.50;;;;;;6161965;28;20051;-85
2024/03/24 02:06:49;;;;;;;9.52;2.20;;;5.90;56.90;;;;;;6193215;28;20089;-84
2024/03/24 02:09:50;;;;;;;12.05;2.75;;;5.90;59.00;;;;;;6180783;28;20069;-85
2024/03/24 02:12:51;;;;;;;14.07;2.97;;;5.90;60.20;;;;;;6170376;28;20137;-86
2024/03/24 02:15:51;;;;;;;9.38;2.25;;;5.90;61.00;;;;;;6204366;28;20058;-85
2024/03/24 02:18:52;;;;;;;15.43;2.83;;;5.90;63.00;;;;;;6162481;28;20502;-85
2024/03/24 02:21:53;;;;;;;11.57;2.50;;;5.90;66.40;;;;;;6193413;28;20057;-85
2024/03/24 02:24:53;;;;;;;10.90;2.10;;;5.90;70.10;;;;;;6170431;28;20054;-86
2024/03/24 02:27:54;;;;;;;13.00;2.40;;;6.00;67.10;;;;;;6207758;28;20065;-85
2024/03/24 02:30:55;;;;;;;11.98;2.38;;;6.00;65.10;;;;;;6156257;28;20129;-87
2024/03/24 02:33:55;;;;;;;15.00;2.95;;;6.00;66.60;;;;;;6161524;28;20065;-87
2024/03/24 02:36:56;;;;;;;18.00;2.42;;;6.10;64.60;;;;;;6208774;28;20053;-87
2024/03/24 02:39:57;;;;;;;14.05;3.00;;;6.10;65.60;;;;;;6170218;28;20085;-86
2024/03/24 02:42:58;;;;;;;11.40;2.70;;;6.10;65.80;;;;;;6207429;28;20501;-86
2024/03/24 02:46:00;;;;;;;14.40;3.10;;;6.10;70.30;;;;;;6159346;28;20090;-83
2024/03/24 02:49:01;;;;;;;12.63;2.85;;;6.10;67.00;;;;;;6161877;28;20063;-86
2024/03/24 02:52:01;;;;;;;14.55;2.67;;;6.10;69.60;;;;;;6168688;28;20100;-85
2024/03/24 02:55:03;;;;;;;11.68;3.15;;;6.10;70.30;;;;;;6209817;28;20133;-85
2024/03/24 02:58:03;;;;;;;15.10;3.20;;;6.00;70.90;;;;;;6171761;28;20064;-84
2024/03/24 03:01:04;;;;;;;12.25;2.75;;;6.00;73.50;;;;;;6198428;28;20391;-85
2024/03/24 03:04:05;;;;;;;13.32;3.05;;;6.00;74.60;;;;;;6161915;28;20051;-82
2024/03/24 03:07:06;;;;;;;14.65;2.67;;;6.10;75.90;;;;;;6191381;28;20464;-84
2024/03/24 03:10:08;;;;;;;10.20;2.63;;;6.10;76.50;;;;;;6194454;28;20061;-85
2024/03/24 03:13:09;;;;;;;14.23;2.60;;;6.30;77.10;;;;;;6172077;28;20050;-86
2024/03/24 03:16:14;;;;;;;12.25;2.47;;;6.30;71.10;;;;;;6188271;28;20054;-85
2024/03/24 03:19:14;;;;;;;8.80;2.30;;;6.30;72.50;;;;;;6144024;28;20066;-84
2024/03/24 03:22:15;;;;;;;17.35;3.00;;;6.30;73.40;;;;;;6207289;28;20050;-84
2024/03/24 03:25:16;;;;;;;13.63;2.80;;;6.20;77.00;;;;;;6168924;28;20137;-84
2024/03/24 03:28:17;;;;;;;11.45;2.78;;;6.20;77.90;;;;;;6197441;28;20060;-85
2024/03/24 03:31:18;;;;;;;11.30;2.30;;;6.20;82.40;;;;;;6167447;28;20433;-83
2024/03/24 03:34:19;;;;;;;14.60;3.28;;;6.30;87.90;;;;;;6207983;28;20485;-83
2024/03/24 03:37:20;;;;;;;15.10;2.90;;;6.30;92.10;;;;;;6183660;28;20058;-82
2024/03/24 03:40:21;;;;;;;14.10;3.38;;;6.40;93.70;;;;;;6190817;28;20115;-82
2024/03/24 03:43:22;;;;;;;11.63;2.95;;;6.40;95.20;;;;;;6166811;28;20041;-82
2024/03/24 03:46:22;;;;;;;14.18;3.45;;;6.40;97.60;;;;;;6191285;28;20057;-82
2024/03/24 03:49:23;;;;;;;17.52;2.92;;;6.40;98.60;;;;;;6167691;28;20077;-83
2024/03/24 03:52:29;;;;;;;15.75;2.85;;;6.30;98.50;;;;;;6190457;28;20505;-81
2024/03/24 03:55:30;;;;;;;14.10;3.25;;;6.30;97.30;;;;;;6142875;28;20055;-83
2024/03/24 03:58:31;;;;;;;11.15;3.15;;;6.30;95.50;;;;;;6170200;28;20316;-83
2024/03/24 04:01:32;;;;;;;14.95;2.80;;;6.30;95.80;;;;;;6183791;28;20057;-82
2024/03/24 04:04:32;;;;;;;10.77;2.90;;;6.30;96.60;;;;;;6190173;28;20057;-82
2024/03/24 04:07:33;;;;;;;11.50;3.05;;;6.30;94.90;;;;;;6166808;28;20116;-82
2024/03/24 04:10:34;;;;;;;11.10;3.10;;;6.20;95.60;;;;;;6175197;28;20054;-82
2024/03/24 04:13:34;;;;;;;11.20;2.80;;;6.20;96.50;;;;;;6181349;28;20587;-83
2024/03/24 04:16:35;;;;;;;16.95;3.10;;;6.10;97.20;;;;;;6167011;28;20062;-83
2024/03/24 04:19:36;;;;;;;18.25;3.72;;;6.20;96.70;;;;;;6190221;28;20046;-83
2024/03/24 04:22:36;;;;;;;11.38;3.53;;;6.20;96.40;;;;;;6183330;28;20046;-83
2024/03/24 04:25:37;;;;;;;17.38;3.30;;;6.20;96.40;;;;;;6189076;28;20080;-83
2024/03/24 04:28:38;;;;;;;13.02;2.70;;;6.20;95.20;;;;;;6164523;28;20082;-82
2024/03/24 04:31:39;;;;;;;16.67;2.90;;;6.10;95.50;;;;;;6207231;28;20379;-83
2024/03/24 04:34:40;;;;;;;14.05;3.33;;;6.20;95.20;;;;;;6167018;28;20054;-83
2024/03/24 04:37:41;;;;;;;15.98;3.38;;;6.10;95.50;;;;;;6190760;28;20497;-83
2024/03/24 04:40:41;;;;;;;15.82;3.28;;;6.20;95.60;;;;;;6173983;28;20120;-83
2024/03/24 04:43:42;;;;;;;14.65;3.08;;;6.20;95.20;;;;;;6177607;28;20534;-84
2024/03/24 04:46:43;;;;;;;18.05;3.10;;;6.20;95.20;;;;;;6211436;28;20508;-85
2024/03/24 04:49:43;;;;;;;11.18;2.72;;;6.10;94.80;;;;;;6172244;28;20054;-85
2024/03/24 04:52:44;;;;;;;12.90;2.95;;;6.20;95.20;;;;;;6195406;28;20065;-86
2024/03/24 04:55:46;;;;;;;14.10;3.85;;;6.20;95.30;;;;;;6189664;28;20066;-84
2024/03/24 04:58:46;;;;;;;13.60;3.28;;;6.40;94.70;;;;;;6197775;28;20064;-85
2024/03/24 05:01:47;;;;;;;11.68;3.22;;;6.40;95.10;;;;;;6211449;28;20085;-83
2024/03/24 05:04:48;;;;;;;15.55;3.20;;;6.40;95.10;;;;;;6172118;28;20395;-85
2024/03/24 05:07:48;;;;;;;10.30;2.72;;;6.40;94.50;;;;;;6211291;28;20451;-84
2024/03/24 05:10:50;;;;;;;16.10;3.22;;;6.40;95.20;;;;;;6203763;28;20619;-84
2024/03/24 05:13:50;;;;;;;12.20;3.13;;;6.30;95.20;;;;;;6162461;28;20060;-84
2024/03/24 05:16:53;;;;;;;16.15;3.67;;;6.30;95.40;;;;;;6172132;28;20054;-85
2024/03/24 05:19:55;;;;;;;13.57;3.50;;;6.30;95.60;;;;;;6195021;28;20058;-86
2024/03/24 05:22:55;;;;;;;12.95;3.10;;;6.20;95.90;;;;;;6171702;28;20054;-85
2024/03/24 05:25:56;;;;;;;12.13;3.08;;;6.20;96.20;;;;;;6210372;28;20093;-83
2024/03/24 05:29:00;;;;;;;11.93;3.03;;;6.20;96.10;;;;;;6171415;28;20050;-84
2024/03/24 05:32:00;;;;;;;20.27;3.78;;;6.20;95.60;;;;;;6186960;28;20059;-83
2024/03/24 05:35:01;;;;;;;10.90;2.80;;;6.20;95.50;;;;;;6209873;28;20042;-84
2024/03/24 05:38:02;;;;;;;11.98;2.88;;;6.20;95.80;;;;;;6171107;28;20054;-83
2024/03/24 05:41:04;;;;;;;13.85;3.15;;;6.20;96.00;;;;;;6193947;28;20058;-84
2024/03/24 05:44:04;;;;;;;13.13;3.05;;;6.20;95.80;;;;;;6167203;28;20095;-84
2024/03/24 05:47:05;;;;;;;13.93;3.63;;;6.10;96.20;;;;;;6170856;28;20390;-84
2024/03/24 05:50:05;;;;;;;12.48;3.63;;;6.10;96.60;;;;;;6192629;28;20049;-83
2024/03/24 05:53:08;;;;;;;12.55;2.95;;;6.10;96.40;;;;;;6171162;28;20086;-85
2024/03/24 05:56:09;;;;;;;14.85;3.40;;;6.10;97.20;;;;;;6194481;28;20053;-83
2024/03/24 05:59:10;;;;;;;11.52;3.20;;;6.00;98.00;;;;;;6191955;28;20060;-84
2024/03/24 06:02:11;;;;;;;10.75;3.58;;;6.00;98.10;;;;;;6170103;28;20459;-84
2024/03/24 06:05:12;;;;;;;14.60;3.53;;;6.00;98.00;;;;;;6193463;28;20085;-84
2024/03/24 06:08:13;;;;;;;13.05;2.97;;;6.10;98.20;;;;;;6186896;28;20093;-84
2024/03/24 06:11:14;;;;;;;12.75;3.10;;;6.20;97.80;;;;;;6192910;28;20429;-82
2024/03/24 06:14:15;;;;;;;13.65;3.25;;;6.20;96.90;;;;;;6198275;28;20093;-84
2024/03/24 06:17:16;;;;;;;12.70;3.30;;;6.30;96.90;;;;;;6186394;28;20497;-83
2024/03/24 06:20:17;;;;;;;14.70;3.28;;;6.40;96.10;;;;;;6193203;28;20092;-82
2024/03/24 06:23:18;;;;;;;8.93;3.05;;;6.40;96.10;;;;;;6170773;28;20104;-86
2024/03/24 06:26:19;;;;;;;12.75;3.55;;;6.50;95.60;;;;;;6193180;28;20184;-85
2024/03/24 06:29:20;;;;;;;11.93;3.28;;;6.60;94.50;;;;;;6172704;28;20046;-84
2024/03/24 06:32:21;;;;;;;9.82;3.08;;;6.50;94.50;;;;;;6170508;28;20108;-86
2024/03/24 06:35:21;;;;;;;12.18;2.80;;;6.50;94.20;;;;;;6194004;28;20058;-84
2024/03/24 06:38:22;;;;;;;10.88;3.00;;;6.50;93.50;;;;;;6170630;28;20076;-85
2024/03/24 06:41:23;;;;;;;11.07;2.58;;;6.50;93.40;;;;;;6194553;28;20069;-86
2024/03/24 06:44:24;;;;;;;12.23;3.13;;;6.60;94.10;;;;;;6175962;28;20054;-84
2024/03/24 06:47:24;;;;;;;10.38;3.15;;;6.50;94.10;;;;;;6171199;28;20487;-85
2024/03/24 06:50:25;;;;;;;9.50;2.78;;;6.50;94.30;;;;;;6195099;28;20054;-86
2024/03/24 06:53:26;;;;;;;14.55;3.30;;;6.50;95.10;;;;;;6171924;28;20050;-85
2024/03/24 06:56:27;;;;;;;15.02;3.72;;;6.40;94.90;;;;;;6194612;28;20470;-84
2024/03/24 06:59:28;;;;;;;10.57;2.83;;;6.40;94.50;;;;;;6181632;28;20049;-84
2024/03/24 07:02:29;;;;;;;9.95;2.72;;;6.50;95.20;;;;;;6188856;28;20547;-85
2024/03/24 07:05:29;;;;;;;10.93;2.92;;;6.50;94.30;;;;;;6196457;28;20050;-84
2024/03/24 07:08:30;;;;;;;10.18;3.22;;;6.60;93.10;;;;;;6207869;28;20038;-83
2024/03/24 07:11:31;;;;;;;10.18;3.35;;;6.60;93.50;;;;;;6233933;28;20068;-82
2024/03/24 07:14:33;;;;;;;11.52;3.65;;;6.60;93.40;;;;;;6199771;28;20531;-82
2024/03/24 07:17:35;;;;;;;12.40;3.58;;;6.60;93.50;;;;;;6212069;28;20066;-83
2024/03/24 07:20:35;;;;;;;15.10;4.07;;;6.60;93.60;;;;;;6230000;28;20544;-82
2024/03/24 07:23:36;;;;;;;14.82;3.15;;;6.60;93.10;;;;;;6187239;28;20073;-83
2024/03/24 07:26:37;;;;;;;12.65;3.40;;;6.70;94.10;;;;;;6193707;28;20085;-83
2024/03/24 07:29:39;;;;;;;10.20;3.05;;;6.70;94.10;;;;;;6174755;28;20112;-84
2024/03/24 07:32:40;;;;;;;11.02;3.13;;;6.80;93.10;;;;;;6170324;28;20054;-84
2024/03/24 07:35:41;;;;;;;9.57;2.85;;;6.80;93.20;;;;;;6193180;28;20432;-83
2024/03/24 07:38:42;;;;;;;13.98;3.03;;;6.80;92.50;;;;;;6170132;28;20138;-83
2024/03/24 07:41:43;;;;;;;12.98;2.83;;;7.00;92.40;;;;;;6208626;28;20144;-84
2024/03/24 07:44:44;;;;;;;13.73;2.90;;;7.10;91.60;;;;;;6180200;28;20136;-83
2024/03/24 07:47:44;;;;;;;12.20;3.33;;;7.40;87.90;;;;;;6170610;28;20530;-84
2024/03/24 07:50:45;;;;;;;9.63;3.20;;;7.50;84.20;;;;;;6209384;28;20061;-85
2024/03/24 07:53:48;;;;;;;9.55;3.17;;;7.60;82.20;;;;;;6170999;28;20086;-83
2024/03/24 07:56:49;;;;;;;10.00;2.95;;;7.70;80.40;;;;;;6192990;28;20058;-84
2024/03/24 07:59:49;;;;;;;12.55;3.08;;;7.90;76.90;;;;;;6161514;28;20050;-85
2024/03/24 08:02:50;;;;;;;9.95;3.03;;;8.00;72.50;;;;;;6193685;28;20058;-85
2024/03/24 08:05:51;;;;;;;7.20;2.67;;;8.10;68.50;;;;;;6171451;28;20054;-87
2024/03/24 08:08:51;;;;;;;9.32;2.72;;;8.30;69.80;;;;;;6193069;28;20046;-86
2024/03/24 08:11:52;;;;;;;10.52;2.75;;;8.40;61.90;;;;;;6168055;28;20054;-87
2024/03/24 08:14:53;;;;;;;9.75;2.90;;;8.50;58.40;;;;;;6180951;28;20453;-86
2024/03/24 08:17:53;;;;;;;10.70;2.97;;;8.50;56.40;;;;;;6183119;28;20050;-84
2024/03/24 08:20:55;;;;;;;10.30;3.10;;;8.50;52.40;;;;;;6190469;28;20049;-87
2024/03/24 08:23:56;;;;;;;10.32;3.10;;;8.50;50.30;;;;;;6168376;28;20058;-85
2024/03/24 08:26:57;;;;;;;10.38;3.15;;;8.50;46.80;;;;;;6191639;28;20088;-86
2024/03/24 08:29:58;;;;;;;8.95;2.65;;;8.50;33.90;;;;;;6174362;28;20484;-88
2024/03/24 08:32:58;;;;;;;10.25;2.30;;;8.50;41.20;;;;;;6191722;28;20042;-87
2024/03/24 08:35:59;;;;;;;8.02;2.20;;;8.60;49.60;;;;;;6168554;28;20076;-85
2024/03/24 08:39:00;;;;;;;7.07;2.30;;;8.60;32.90;;;;;;6191088;28;20050;-86
2024/03/24 08:42:01;;;;;;;9.98;2.75;;;8.60;35.30;;;;;;6168967;28;20054;-86
2024/03/24 08:45:01;;;;;;;9.32;2.20;;;8.70;34.50;;;;;;6172479;28;20050;-88
2024/03/24 08:48:02;;;;;;;8.82;2.33;;;8.70;22.10;;;;;;6168552;28;20085;-88
2024/03/24 08:51:03;;;;;;;8.38;2.08;;;8.80;12.60;;;;;;6192593;28;20049;-88
2024/03/24 08:54:04;;;;;;;6.88;2.00;;;8.80;7.00;;;;;;6169171;28;20449;-87
2024/03/24 08:57:05;;;;;;;6.97;2.20;;;8.90;7.00;;;;;;6190978;28;20137;-88
2024/03/24 09:00:06;;;;;;;7.82;2.08;;;8.90;8.70;;;;;;6149805;28;20125;-88
2024/03/24 09:03:06;;;;;;;8.32;2.00;;;9.10;7.10;;;;;;6191109;28;20436;-87
2024/03/24 09:06:07;;;;;;;7.88;2.20;;;9.00;1.00;;;;;;6167959;28;20451;-87
2024/03/24 09:09:08;;;;;;;6.82;1.70;;;9.00;1.00;;;;;;6189249;28;20057;-89
2024/03/24 09:12:09;;;;;;;7.72;1.92;;;9.10;1.00;;;;;;6167613;28;20050;-87
2024/03/24 09:15:10;;;;;;;8.68;1.80;;;9.10;1.00;;;;;;6201525;28;20053;-86
2024/03/24 09:18:10;;;;;;;7.97;1.60;;;9.30;1.00;;;;;;6168439;28;20066;-84
2024/03/24 09:21:11;;;;;;;8.70;2.00;;;9.40;1.00;;;;;;6193264;28;20041;-90
2024/03/24 09:24:12;;;;;;;8.93;1.75;;;9.50;1.00;;;;;;6186197;28;20062;-88
2024/03/24 09:27:13;;;;;;;6.50;1.83;;;9.90;1.00;;;;;;6199947;28;20602;-89
2024/03/24 09:30:14;;;;;;;5.95;1.73;;;10.10;1.00;;;;;;6185252;28;20506;-87
2024/03/24 09:33:15;;;;;;;7.90;1.77;;;10.00;1.00;;;;;;6220810;28;20058;-88
2024/03/24 09:36:17;;;;;;;4.45;1.20;;;10.70;1.00;;;;;;6181164;28;20112;-88
2024/03/24 09:39:18;;;;;;;3.38;1.10;;;12.10;1.00;;;;;;6206980;28;20061;-89
2024/03/24 09:42:19;;;;;;;6.05;1.45;;;12.90;1.00;;;;;;6202977;28;20047;-88
2024/03/24 09:45:20;;;;;;;3.67;1.10;;;13.10;1.00;;;;;;6188485;28;20096;-87
2024/03/24 09:48:21;;;;;;;3.85;1.10;;;12.80;1.00;;;;;;6183035;28;20085;-90
2024/03/24 09:51:21;;;;;;;4.97;1.33;;;12.60;1.00;;;;;;6211174;28;20050;-87
2024/03/24 09:54:22;;;;;;;15.50;1.55;;;12.30;1.00;;;;;;6187127;28;20482;-90
2024/03/24 09:57:23;;;;;;;4.03;1.45;;;12.20;1.00;;;;;;6213001;28;20066;-90
2024/03/24 10:00:24;;;;;;;4.88;0.98;;;12.10;1.00;;;;;;6163919;28;20063;-89
2024/03/24 10:03:24;;;;;;;5.30;1.30;;;12.60;1.00;;;;;;6211477;28;20053;-89
2024/03/24 10:06:25;;;;;;;5.85;1.48;;;12.20;1.00;;;;;;6186125;28;20042;-91
2024/03/24 10:09:25;;;;;;;5.45;1.40;;;11.90;1.00;;;;;;6207086;28;20065;-91
2024/03/24 10:12:27;;;;;;;6.15;1.52;;;12.10;1.00;;;;;;6201033;28;20090;-91
2024/03/24 10:15:28;;;;;;;4.55;1.30;;;13.30;1.00;;;;;;6196591;28;20054;-83
2024/03/24 10:18:28;;;;;;;4.10;1.20;;;13.20;1.00;;;;;;6171307;28;20057;-86
2024/03/24 10:21:29;;;;;;;6.53;1.30;;;12.60;1.00;;;;;;6202146;28;20060;-85
2024/03/24 10:24:29;;;;;;;5.68;1.75;;;12.40;1.00;;;;;;6177735;28;20473;-87
2024/03/24 10:27:30;;;;;;;5.22;1.50;;;12.20;1.00;;;;;;6199608;28;20052;-90
2024/03/24 10:30:31;;;;;;;9.88;1.48;;;12.40;1.00;;;;;;6182014;28;20054;-86
2024/03/24 10:33:32;;;;;;;4.38;1.05;;;13.40;1.00;;;;;;6212032;28;20112;-89
2024/03/24 10:36:33;;;;;;;4.13;1.05;;;14.10;1.00;;;;;;6194337;28;20406;-89
2024/03/24 10:39:34;;;;;;;3.10;1.05;;;14.70;1.00;;;;;;6201675;28;20096;-91
2024/03/24 10:42:35;;;;;;;5.35;1.30;;;14.30;1.00;;;;;;6193412;28;20487;-83
2024/03/24 10:45:35;;;;;;;2.38;0.88;;;14.40;1.00;;;;;;6188832;28;20064;-87
2024/03/24 10:48:36;;;;;;;3.90;1.13;;;13.90;1.00;;;;;;6178285;28;20064;-86
2024/03/24 10:51:37;;;;;;;4.03;1.13;;;13.30;1.00;;;;;;6210991;28;20499;-87
2024/03/24 10:54:37;;;;;;;4.70;1.20;;;14.70;1.00;;;;;;6187035;28;20054;-93
2024/03/24 10:57:38;;;;;;;4.90;1.25;;;14.90;1.00;;;;;;6195104;28;20080;-87
2024/03/24 11:00:39;;;;;;;4.43;1.42;;;14.30;1.00;;;;;;6171053;28;20046;-92
2024/03/24 11:03:44;;;;;;;5.25;1.30;;;14.00;1.00;;;;;;6208797;28;20095;-90
2024/03/24 11:06:45;;;;;;;10.18;1.23;;;14.10;1.00;;;;;;6171357;28;20413;-89
2024/03/24 11:09:45;;;;;;;4.57;1.25;;;14.30;1.00;;;;;;6203085;28;20058;-89
2024/03/24 11:12:46;;;;;;;2.83;1.00;;;15.50;1.00;;;;;;6170003;28;20105;-87
2024/03/24 11:15:48;;;;;;;4.00;1.20;;;16.30;1.00;;;;;;6202980;28;20049;-87
2024/03/24 11:18:49;;;;;;;3.55;1.10;;;16.60;1.00;;;;;;6185982;28;20054;-86
2024/03/24 11:21:50;;;;;;;2.88;1.20;;;17.30;1.00;;;;;;6208209;28;20065;-88
2024/03/24 11:24:51;;;;;;;4.32;1.20;;;17.50;1.00;;;;;;6186047;28;20097;-89
2024/03/24 11:27:52;;;;;;;2.53;1.00;;;18.10;1.00;;;;;;6208636;28;20192;-88
2024/03/24 11:30:52;;;;;;;5.35;1.30;;;18.30;1.00;;;;;;6184460;28;20086;-90
2024/03/24 11:33:53;;;;;;;5.05;1.30;;;17.40;1.00;;;;;;6209147;28;20136;-92
2024/03/24 11:36:54;;;;;;;5.00;1.23;;;17.40;1.00;;;;;;6185364;28;20477;-92
2024/03/24 11:39:55;;;;;;;3.83;1.20;;;16.40;1.00;;;;;;6192013;28;20085;-87
2024/03/24 11:42:56;;;;;;;5.43;1.45;;;16.40;1.00;;;;;;6184917;28;20058;-89
2024/03/24 11:45:57;;;;;;;4.13;1.33;;;17.10;1.00;;;;;;6197962;28;20054;-88
2024/03/24 11:48:58;;;;;;;3.78;1.10;;;17.20;1.00;;;;;;6159303;28;20098;-90
2024/03/24 11:51:59;;;;;;;9.38;1.73;;;16.60;1.00;;;;;;6207570;28;20133;-89
2024/03/24 11:54:59;;;;;;;4.05;1.30;;;16.80;1.00;;;;;;6168921;28;20085;-90
2024/03/24 11:58:00;;;;;;;3.58;1.15;;;17.60;1.00;;;;;;6190619;28;20140;-79
2024/03/24 12:01:03;;;;;;;4.25;1.20;;;18.10;1.00;;;;;;6157668;28;20108;-88
2024/03/24 12:04:04;;;;;;;4.07;1.33;;;18.40;1.00;;;;;;6159788;28;20400;-89
2024/03/24 12:07:06;;;;;;;4.72;1.30;;;18.60;1.00;;;;;;6190304;28;20050;-87
2024/03/24 12:10:07;;;;;;;5.47;1.45;;;18.20;1.00;;;;;;6192844;28;20066;-87
2024/03/24 12:13:08;;;;;;;8.00;1.50;;;17.80;1.00;;;;;;6169307;28;20086;-88
2024/03/24 12:16:09;;;;;;;3.92;1.00;;;18.50;1.00;;;;;;6195771;28;20417;-87
2024/03/24 12:19:09;;;;;;;4.82;1.13;;;19.10;1.00;;;;;;6179590;28;20057;-87
2024/03/24 12:22:10;;;;;;;7.28;1.30;;;19.60;1.00;;;;;;6211267;28;20116;-89
2024/03/24 12:25:11;;;;;;;5.40;1.35;;;19.30;1.00;;;;;;6171151;28;20066;-86
2024/03/24 12:28:12;;;;;;;4.93;1.33;;;18.90;1.00;;;;;;6199547;28;20053;-90
2024/03/24 12:31:13;;;;;;;2.63;1.00;;;19.20;1.00;;;;;;6184711;28;20141;-92
2024/03/24 12:34:14;;;;;;;11.00;1.33;;;19.00;1.00;;;;;;6160384;28;20108;-84
2024/03/24 12:37:15;;;;;;;5.38;1.35;;;18.00;1.00;;;;;;6208368;28;20061;-85
2024/03/24 12:40:15;;;;;;;4.85;1.38;;;18.30;1.00;;;;;;6191687;28;20118;-87
2024/03/24 12:43:16;;;;;;;6.05;1.50;;;17.30;1.00;;;;;;6189833;28;20101;-86
2024/03/24 12:46:17;;;;;;;4.10;1.30;;;16.40;1.00;;;;;;6175487;28;20063;-87
2024/03/24 12:49:19;;;;;;;4.05;1.35;;;16.70;1.00;;;;;;6164662;28;20055;-86
2024/03/24 12:52:19;;;;;;;4.03;1.05;;;16.60;1.00;;;;;;6215252;28;20064;-89
2024/03/24 12:55:20;;;;;;;5.03;1.17;;;17.00;1.00;;;;;;6173904;28;20526;-84
2024/03/24 12:58:21;;;;;;;6.45;1.40;;;16.50;1.00;;;;;;6205725;28;20050;-85
2024/03/24 13:01:23;;;;;;;5.15;1.40;;;16.60;1.00;;;;;;6190723;28;20046;-85
2024/03/24 13:04:24;;;;;;;5.47;1.27;;;17.90;1.00;;;;;;6221048;28;20089;-89
2024/03/24 13:07:24;;;;;;;3.28;1.25;;;18.50;1.00;;;;;;6194577;28;20462;-85
2024/03/24 13:10:25;;;;;;;4.43;1.20;;;18.60;1.00;;;;;;6181978;28;20062;-87
2024/03/24 13:13:26;;;;;;;4.35;1.40;;;18.10;1.00;;;;;;6202193;28;20046;-87
2024/03/24 13:16:27;;;;;;;6.88;1.40;;;18.50;1.00;;;;;;6187545;28;20060;-86
2024/03/24 13:19:29;;;;;;;4.15;1.10;;;19.00;1.00;;;;;;6211341;28;20436;-85
2024/03/24 13:22:30;;;;;;;5.30;1.00;;;18.80;1.00;;;;;;6188625;28;20065;-87
2024/03/24 13:25:31;;;;;;;5.00;1.02;;;17.60;1.00;;;;;;6211889;28;20053;-85
2024/03/24 13:28:32;;;;;;;4.63;1.02;;;16.70;1.00;;;;;;6189498;28;20084;-86
2024/03/24 13:31:33;;;;;;;4.32;1.40;;;16.90;1.00;;;;;;6211538;28;20050;-85
2024/03/24 13:34:34;;;;;;;5.40;1.15;;;17.80;1.00;;;;;;6171754;28;20104;-84
2024/03/24 13:37:35;;;;;;;4.50;1.20;;;18.70;1.00;;;;;;6195172;28;20061;-86
2024/03/24 13:40:37;;;;;;;3.88;1.17;;;17.60;1.00;;;;;;6189076;28;20496;-86
2024/03/24 13:43:39;;;;;;;5.35;1.40;;;16.60;1.00;;;;;;6187432;28;20072;-84
2024/03/24 13:46:40;;;;;;;5.88;1.23;;;17.10;1.00;;;;;;6170726;28;20057;-80
2024/03/24 13:49:41;;;;;;;6.57;1.40;;;16.80;1.00;;;;;;6210663;28;20053;-80
2024/03/24 13:52:41;;;;;;;5.40;1.20;;;16.30;1.00;;;;;;6190813;28;20054;-81
2024/03/24 13:55:43;;;;;;;4.13;1.08;;;15.90;1.00;;;;;;6192352;28;20053;-81
2024/03/24 13:58:43;;;;;;;4.85;1.15;;;16.00;1.00;;;;;;6167841;28;20111;-83
2024/03/24 14:01:44;;;;;;;5.55;1.20;;;15.70;1.00;;;;;;6186737;28;20074;-82
2024/03/24 14:04:45;;;;;;;10.63;1.60;;;15.40;1.00;;;;;;6210199;28;20054;-82
2024/03/24 14:07:46;;;;;;;6.97;1.40;;;15.20;1.00;;;;;;6187294;28;20064;-83
2024/03/24 14:10:46;;;;;;;4.55;1.10;;;16.50;1.00;;;;;;6176002;28;20058;-80
2024/03/24 14:13:47;;;;;;;4.70;1.20;;;16.50;1.00;;;;;;6199197;28;20129;-83
2024/03/24 14:16:48;;;;;;;4.53;1.13;;;15.80;1.00;;;;;;6186586;28;20133;-83
2024/03/24 14:19:49;;;;;;;4.07;1.30;;;15.60;1.00;;;;;;6210631;28;20158;-85
2024/03/24 14:22:51;;;;;;;4.90;1.50;;;16.50;1.00;;;;;;6187296;28;20518;-85
2024/03/24 14:25:51;;;;;;;3.17;1.23;;;17.60;1.00;;;;;;6208647;28;20050;-84
2024/03/24 14:28:52;;;;;;;4.47;1.08;;;18.20;1.00;;;;;;6173856;28;20056;-84
2024/03/24 14:31:53;;;;;;;2.97;1.08;;;18.50;1.00;;;;;;6186758;28;20054;-84
2024/03/24 14:34:54;;;;;;;3.85;1.05;;;18.20;1.00;;;;;;6209722;28;20042;-84
2024/03/24 14:37:56;;;;;;;2.38;1.10;;;18.60;1.00;;;;;;6185701;28;20054;-82
2024/03/24 14:40:56;;;;;;;2.92;0.90;;;18.90;1.00;;;;;;6208117;28;20046;-84
2024/03/24 14:43:57;;;;;;;3.60;1.10;;;19.10;1.00;;;;;;6184509;28;20569;-85
2024/03/24 14:46:58;;;;;;;2.88;0.98;;;19.30;1.00;;;;;;6186044;28;20050;-85
2024/03/24 14:49:58;;;;;;;3.15;1.10;;;18.90;1.00;;;;;;6209359;28;20512;-84
2024/03/24 14:52:59;;;;;;;4.22;1.00;;;18.60;1.00;;;;;;6185765;28;20054;-85
2024/03/24 14:56:00;;;;;;;12.95;1.42;;;18.70;1.00;;;;;;6208413;28;20446;-85
2024/03/24 14:59:01;;;;;;;3.88;0.93;;;18.90;1.00;;;;;;6173479;28;20089;-88
2024/03/24 15:02:02;;;;;;;2.92;0.98;;;18.70;1.00;;;;;;6184538;28;20058;-86
2024/03/24 15:05:03;;;;;;;8.15;1.33;;;18.30;1.00;;;;;;6208913;28;20129;-85
2024/03/24 15:08:04;;;;;;;5.10;1.35;;;18.50;1.00;;;;;;6169989;28;20476;-91
2024/03/24 15:11:05;;;;;;;3.47;1.02;;;18.30;1.00;;;;;;6207625;28;20497;-83
2024/03/24 15:14:06;;;;;;;3.83;1.15;;;18.00;1.00;;;;;;6178416;28;20081;-84
2024/03/24 15:17:07;;;;;;;3.80;1.10;;;17.30;1.00;;;;;;6186534;28;20145;-84
2024/03/24 15:20:08;;;;;;;7.13;1.13;;;17.40;1.00;;;;;;6208922;28;20068;-80
2024/03/24 15:23:09;;;;;;;5.53;1.42;;;17.50;1.00;;;;;;6184245;28;20469;-82
2024/03/24 15:26:10;;;;;;;3.63;1.20;;;17.80;1.00;;;;;;6190830;28;20054;-90
2024/03/24 15:29:11;;;;;;;4.00;1.13;;;17.80;1.00;;;;;;6172611;28;20096;-85
2024/03/24 15:32:12;;;;;;;4.40;1.27;;;17.50;1.00;;;;;;6168896;28;20055;-85
2024/03/24 15:35:13;;;;;;;5.18;1.10;;;16.10;1.00;;;;;;6193055;28;20050;-85
2024/03/24 15:38:13;;;;;;;3.90;1.40;;;15.20;1.00;;;;;;6183165;28;20097;-83
2024/03/24 15:41:14;;;;;;;9.77;1.75;;;15.00;1.00;;;;;;6190563;28;20486;-83
2024/03/24 15:44:15;;;;;;;3.47;1.10;;;14.90;1.00;;;;;;6179453;28;20135;-83
2024/03/24 15:47:16;;;;;;;4.93;1.08;;;14.80;1.00;;;;;;6184336;28;20089;-84